Terminal Aerodrome Forecast
Issued by NWS Charleston, WV

Current Version | Previous Version | Text Only | Print | Product List | Glossary Off
Versions: 1 2 3 4 5 6 7 8 9 10 11 12 13 14 15 16 17 18 19 20 21 22 23 24 25

000
FTUS41 KRLX 222300
TAFEKN
TAF
KEKN 222329Z 2300/2324 VRB03KT P6SM FEW040
     FM230500 VRB03KT 6SM BR FEW040
     FM230700 00000KT 5SM BR FEW030
     FM231000 VRB03KT 2SM BR SCT010
     FM231100 VRB03KT 1SM BR SCT003
     FM231200 23004KT 2SM BR SCT003
     FM231400 24007KT 4SM BR SCT020
     FM231700 24009KT P6SM VCTS SCT030CB
     FM232000 28011G17KT P6SM VCTS BKN035CB
     FM232200 28010G15KT 6SM TSRA BR BKN040CB
     FM232300 27008KT 5SM TSRA BR BKN040CB=

USA.gov is the U.S. government's official web portal to all federal, state and local government web resources and services.